createdAt,value
2022-08-18T00:02:15.867Z,93831.34
2022-08-18T00:04:48.674Z,93830.22
2022-08-18T00:07:19.398Z,93828.63
2022-08-18T00:09:48.757Z,93834.38
2022-08-18T00:12:18.083Z,93830.53
2022-08-18T00:14:45.846Z,93827.00
2022-08-18T00:17:13.975Z,93820.44
2022-08-18T00:19:46.151Z,93808.72
2022-08-18T00:22:16.158Z,93795.88
2022-08-18T00:24:48.316Z,93780.59
2022-08-18T00:27:21.593Z,93798.91
2022-08-18T00:29:49.989Z,93818.81
2022-08-18T00:32:19.884Z,93827.31
2022-08-18T00:34:47.527Z,93833.56
2022-08-18T00:37:15.163Z,93835.50
2022-08-18T00:39:46.491Z,93842.88
2022-08-18T00:42:29.122Z,93843.69
2022-08-18T00:44:59.515Z,93851.06
2022-08-18T00:47:41.274Z,93845.59
2022-08-18T00:50:15.365Z,93847.50
2022-08-18T00:52:47.213Z,93841.25
2022-08-18T00:55:15.111Z,93829.22
2022-08-18T00:57:44.168Z,93831.94
2022-08-18T01:00:13.820Z,93828.41
2022-08-18T01:02:43.903Z,93819.41
2022-08-18T01:05:13.484Z,93813.97
2022-08-18T01:07:43.850Z,93813.13
2022-08-18T01:10:16.069Z,93811.22
2022-08-18T01:12:46.937Z,93806.88
2022-08-18T01:15:28.517Z,93817.81
2022-08-18T01:18:15.752Z,93812.34
2022-08-18T01:21:03.827Z,93821.66
2022-08-18T01:23:32.902Z,93816.19
2022-08-18T01:26:02.354Z,93805.28
2022-08-18T01:28:30.194Z,93799.00
2022-08-18T01:30:58.348Z,93795.47
2022-08-18T01:33:30.053Z,93797.09
2022-08-18T01:35:58.202Z,93790.81
2022-08-18T01:38:26.277Z,93783.72
2022-08-18T01:41:27.231Z,93785.66
2022-08-18T01:43:43.062Z,93777.50
2022-08-18T01:46:10.685Z,93781.00
2022-08-18T01:48:38.499Z,93776.66
2022-08-18T01:51:06.726Z,93785.66
2022-08-18T01:53:34.337Z,93777.78
2022-08-18T01:56:05.268Z,93773.16
2022-08-18T01:58:32.959Z,93778.59
2022-08-18T02:01:01.606Z,93764.97
2022-08-18T02:03:30.617Z,93767.97
2022-08-18T02:06:01.710Z,93777.78
2022-08-18T02:08:29.382Z,93776.16
2022-08-18T02:10:58.252Z,93773.44
2022-08-18T02:13:27.246Z,93775.34
2022-08-18T02:15:54.866Z,93768.28
2022-08-18T02:18:45.266Z,93760.91
2022-08-18T02:21:13.810Z,93759.28
2022-08-18T02:23:41.625Z,93745.66
2022-08-18T02:26:21.237Z,93744.81
2022-08-18T02:28:50.189Z,93744.03
2022-08-18T02:31:19.259Z,93754.63
2022-08-18T02:33:51.849Z,93750.28
2022-08-18T02:36:20.445Z,93753.00
2022-08-18T02:38:54.859Z,93754.13
2022-08-18T02:41:29.705Z,93747.56
2022-08-18T02:43:59.029Z,93750.28
2022-08-18T02:46:30.060Z,93743.22
2022-08-18T02:48:58.822Z,93743.22
2022-08-18T02:51:26.541Z,93740.47
2022-08-18T02:53:54.364Z,93740.78
2022-08-18T02:56:32.707Z,93744.28
2022-08-18T02:59:10.858Z,93739.94
2022-08-18T03:01:40.758Z,93738.34
2022-08-18T03:04:09.585Z,93730.16
2022-08-18T03:06:37.950Z,93736.72
2022-08-18T03:09:05.726Z,93725.81
2022-08-18T03:11:33.373Z,93714.06
2022-08-18T03:14:01.344Z,93715.69
2022-08-18T03:16:31.398Z,93712.16
2022-08-18T03:18:59.109Z,93708.94
2022-08-18T03:21:28.037Z,93695.31
2022-08-18T03:24:00.859Z,93687.13
2022-08-18T03:26:30.308Z,93685.19
2022-08-18T03:28:58.400Z,93695.31
2022-08-18T03:31:27.731Z,93692.88
2022-08-18T03:33:59.375Z,93693.69
2022-08-18T03:36:31.792Z,93690.97
2022-08-18T03:38:59.425Z,93683.56
2022-08-18T03:41:56.790Z,93686.63
2022-08-18T03:44:15.641Z,93693.16
2022-08-18T03:46:43.453Z,93690.75
2022-08-18T03:49:12.729Z,93683.38
2022-08-18T03:51:43.461Z,93680.63
2022-08-18T03:54:13.264Z,93675.19
2022-08-18T03:56:41.180Z,93668.94
2022-08-18T03:59:27.607Z,93663.47
2022-08-18T04:01:56.004Z,93668.94
2022-08-18T04:04:43.633Z,93663.47
2022-08-18T04:07:14.268Z,93659.94
2022-08-18T04:09:42.952Z,93656.69
2022-08-18T04:14:46.464Z,93669.00
2022-08-18T04:17:14.073Z,93673.19
2022-08-18T04:19:43.118Z,93674.28
2022-08-18T04:22:11.259Z,93672.97
2022-08-18T04:24:45.801Z,93662.34
2022-08-18T04:27:13.436Z,93659.94
2022-08-18T04:29:41.121Z,93644.69
2022-08-18T04:32:08.766Z,93633.78
2022-08-18T04:34:36.432Z,93643.38
2022-08-18T04:37:05.544Z,93640.16
2022-08-18T04:39:33.214Z,93636.94
2022-08-18T04:42:03.551Z,93625.53
2022-08-18T04:44:31.757Z,93633.16
2022-08-18T04:46:59.418Z,93640.84
2022-08-18T04:49:27.877Z,93652.88
2022-08-18T04:52:34.360Z,93668.72
2022-08-18T04:55:03.541Z,93670.94
2022-08-18T04:57:33.820Z,93665.00
2022-08-18T05:00:02.781Z,93673.16
2022-08-18T05:02:33.011Z,93680.53
2022-08-18T05:05:01.264Z,93704.28
2022-08-18T05:07:29.080Z,93721.41
2022-08-18T05:09:56.886Z,93727.97
2022-08-18T05:12:26.723Z,93732.63
2022-08-18T05:14:56.680Z,93736.47
2022-08-18T05:17:30.239Z,93744.66
2022-08-18T05:19:58.745Z,93750.41
2022-08-18T05:22:30.687Z,93739.78
2022-08-18T05:24:59.878Z,93742.50
2022-08-18T05:27:32.809Z,93737.38
2022-08-18T05:30:00.409Z,93733.81
2022-08-18T05:32:47.402Z,93742.81
2022-08-18T05:35:19.528Z,93746.34
2022-08-18T05:37:53.320Z,93753.72
2022-08-18T05:40:21.857Z,93756.44
2022-08-18T05:42:51.167Z,93754.00
2022-08-18T05:45:19.473Z,93751.00
2022-08-18T05:47:47.113Z,93752.91
2022-08-18T05:50:16.570Z,93752.13
2022-08-18T05:52:45.878Z,93754.84
2022-08-18T05:55:32.518Z,93763.31
2022-08-18T05:58:04.338Z,93760.56
2022-08-18T06:00:32.247Z,93766.03
2022-08-18T06:03:02.135Z,93762.78
2022-08-18T06:05:31.970Z,93776.44
2022-08-18T06:08:00.734Z,93772.88
2022-08-18T06:10:28.422Z,93772.09
2022-08-18T06:12:58.113Z,93775.91
2022-08-18T06:15:43.645Z,93782.97
2022-08-18T06:18:24.066Z,93778.31
2022-08-18T06:21:17.298Z,93774.81
2022-08-18T06:23:52.829Z,93761.47
2022-08-18T06:26:23.248Z,93766.63
2022-08-18T06:28:59.037Z,93777.03
2022-08-18T06:31:33.999Z,93766.63
2022-08-18T06:34:09.289Z,93770.47
2022-08-18T06:36:40.650Z,93775.91
2022-08-18T06:39:12.938Z,93775.09
2022-08-18T06:41:43.845Z,93769.97
2022-08-18T06:44:12.870Z,93770.75
2022-08-18T06:46:46.793Z,93760.69
2022-08-18T06:49:18.653Z,93751.38
2022-08-18T06:51:46.254Z,93752.69
2022-08-18T06:54:27.914Z,93754.84
2022-08-18T06:56:56.121Z,93742.81
2022-08-18T06:59:25.281Z,93741.72
2022-08-18T07:01:55.700Z,93731.91
2022-08-18T07:04:42.328Z,93734.13
2022-08-18T07:07:21.400Z,93737.06
2022-08-18T07:09:49.508Z,93746.06
2022-08-18T07:12:23.323Z,93743.31
2022-08-18T07:14:53.141Z,93745.75
2022-08-18T07:17:42.339Z,93736.47
2022-08-18T07:20:20.263Z,93736.97
2022-08-18T07:22:56.065Z,93733.44
2022-08-18T07:25:26.453Z,93728.81
2022-08-18T07:27:56.199Z,93728.47
2022-08-18T07:30:33.410Z,93736.38
2022-08-18T07:33:08.099Z,93734.75
2022-08-18T07:35:39.095Z,93734.44
2022-08-18T07:38:41.045Z,93742.34
2022-08-18T07:41:00.493Z,93753.25
2022-08-18T07:43:32.118Z,93745.88
2022-08-18T07:46:03.925Z,93750.22
2022-08-18T07:48:38.516Z,93744.78
2022-08-18T07:51:10.201Z,93750.72
2022-08-18T07:53:55.817Z,93756.97
2022-08-18T07:56:29.970Z,93757.78
2022-08-18T07:58:59.699Z,93762.97
2022-08-18T08:01:33.838Z,93749.31
2022-08-18T08:04:25.997Z,93745.50
2022-08-18T08:07:20.805Z,93751.22
2022-08-18T08:09:51.640Z,93762.66
2022-08-18T08:12:26.334Z,93766.47
2022-08-18T08:14:58.163Z,93766.97
2022-08-18T08:17:26.733Z,93758.50
2022-08-18T08:20:08.793Z,93756.91
2022-08-18T08:22:39.991Z,93763.16
2022-08-18T08:25:35.053Z,93756.91
2022-08-18T08:28:09.226Z,93758.50
2022-08-18T08:30:38.989Z,93763.16
2022-08-18T08:33:13.149Z,93766.69
2022-08-18T08:35:49.339Z,93755.78
2022-08-18T08:38:39.207Z,93756.59
2022-08-18T08:41:10.457Z,93754.69
2022-08-18T08:43:41.051Z,93759.03
2022-08-18T08:46:11.154Z,93766.09
2022-08-18T08:48:42.139Z,93766.09
2022-08-18T08:51:20.534Z,93749.72
2022-08-18T08:53:50.314Z,93737.72
2022-08-18T08:56:18.928Z,93738.53
2022-08-18T08:58:47.482Z,93740.44
2022-08-18T09:01:24.606Z,93748.31
2022-08-18T09:03:56.753Z,93751.06
2022-08-18T09:06:30.188Z,93727.31
2022-08-18T09:09:22.925Z,93722.66
2022-08-18T09:12:04.676Z,93722.66
2022-08-18T09:15:04.707Z,93731.66
2022-08-18T09:18:12.872Z,93725.91
2022-08-18T09:20:50.994Z,93736.00
2022-08-18T09:23:21.086Z,93736.81
2022-08-18T09:25:51.880Z,93730.25
2022-08-18T09:28:20.767Z,93731.06
2022-08-18T09:30:55.404Z,93729.94
2022-08-18T09:33:30.018Z,93720.94
2022-08-18T09:39:18.548Z,93723.38
2022-08-18T09:41:50.628Z,93712.47
2022-08-18T09:44:55.549Z,93703.19
2022-08-18T09:48:00.545Z,93701.25
2022-08-18T09:50:40.202Z,93709.44
2022-08-18T09:53:32.559Z,93710.25
2022-08-18T09:56:05.417Z,93717.31
2022-08-18T09:58:56.593Z,93716.50
2022-08-18T10:01:34.155Z,93727.41
2022-08-18T10:04:32.052Z,93724.38
2022-08-18T10:07:23.137Z,93725.22
2022-08-18T10:10:12.790Z,93720.56
2022-08-18T10:13:08.837Z,93714.31
2022-08-18T10:15:48.824Z,93713.19
2022-08-18T10:18:26.826Z,93702.28
2022-08-18T10:21:00.200Z,93682.88
2022-08-18T10:24:31.811Z,93690.25
2022-08-18T10:30:00.410Z,93718.31
2022-08-18T10:32:52.083Z,93715.31
2022-08-18T10:35:54.938Z,93722.38
2022-08-18T10:38:25.695Z,93717.72
2022-08-18T10:41:09.395Z,93713.06
2022-08-18T10:43:55.249Z,93698.63
2022-08-18T10:46:31.852Z,93695.59
2022-08-18T10:49:04.467Z,93685.50
2022-08-18T10:51:59.436Z,93685.50
2022-08-18T10:54:35.023Z,93690.97
2022-08-18T10:57:21.342Z,93683.56
2022-08-18T10:59:54.428Z,93675.09
2022-08-18T11:02:38.430Z,93664.47
2022-08-18T11:05:06.652Z,93659.84
2022-08-18T11:07:35.527Z,93668.03
2022-08-18T11:10:32.744Z,93666.91
2022-08-18T11:13:10.135Z,93642.34
2022-08-18T11:15:44.026Z,93635.78
2022-08-18T11:18:24.133Z,93628.72
2022-08-18T11:20:52.284Z,93619.41
2022-08-18T11:23:19.946Z,93605.78
2022-08-18T11:28:38.953Z,93590.53
2022-08-18T11:31:12.690Z,93588.91
2022-08-18T11:33:42.541Z,93589.41
2022-08-18T11:36:10.401Z,93589.41
2022-08-18T11:38:39.455Z,93578.50
2022-08-18T11:41:17.245Z,93575.78
2022-08-18T11:43:47.440Z,93571.09
2022-08-18T11:46:17.377Z,93561.03
2022-08-18T11:48:53.957Z,93570.31
2022-08-18T11:51:24.724Z,93552.00
2022-08-18T11:53:58.673Z,93551.72
2022-08-18T11:56:31.295Z,93533.75
2022-08-18T11:59:00.435Z,93526.34
2022-08-18T12:01:34.923Z,93518.16
2022-08-18T12:04:16.624Z,93504.53
2022-08-18T12:06:59.446Z,93498.78
2022-08-18T12:12:22.229Z,93493.63
2022-08-18T12:15:02.932Z,93529.91
2022-08-18T12:17:40.509Z,93554.44
2022-08-18T12:20:11.901Z,93561.50
2022-08-18T12:22:40.582Z,93560.72
2022-08-18T12:25:12.222Z,93551.72
2022-08-18T12:27:40.128Z,93537.25
2022-08-18T12:30:08.901Z,93541.63
2022-08-18T12:32:50.357Z,93549.81
2022-08-18T12:35:23.683Z,93558.78
2022-08-18T12:38:04.937Z,93557.19
2022-08-18T12:40:40.293Z,93558.28
2022-08-18T12:43:08.016Z,93562.63
2022-08-18T12:45:37.429Z,93553.63
2022-08-18T12:48:06.855Z,93563.75
2022-08-18T12:50:49.969Z,93567.25
2022-08-18T12:53:30.623Z,93559.91
2022-08-18T12:56:06.969Z,93561.81
2022-08-18T12:58:36.586Z,93566.47
2022-08-18T13:01:04.349Z,93576.28
2022-08-18T13:03:35.251Z,93579.00
2022-08-18T13:06:06.334Z,93570.00
2022-08-18T13:08:47.755Z,93559.91
2022-08-18T13:11:21.682Z,93555.56
2022-08-18T13:13:56.081Z,93559.91
2022-08-18T13:16:30.627Z,93558.28
2022-08-18T13:19:06.962Z,93543.84
2022-08-18T13:21:40.955Z,93536.47
2022-08-18T13:24:09.457Z,93530.19
2022-08-18T13:26:39.973Z,93531.00
2022-08-18T13:29:10.018Z,93528.28
2022-08-18T13:31:38.654Z,93522.00
2022-08-18T13:34:11.602Z,93505.63
2022-08-18T13:36:48.298Z,93498.28
2022-08-18T13:39:17.471Z,93487.38
2022-08-18T13:41:45.653Z,93492.81
2022-08-18T13:44:18.549Z,93481.09
2022-08-18T13:46:48.090Z,93492.00
2022-08-18T13:49:15.944Z,93486.53
2022-08-18T13:51:49.446Z,93481.91
2022-08-18T13:54:30.904Z,93476.47
2022-08-18T13:57:00.139Z,93471.00
2022-08-18T13:59:31.549Z,93466.66
2022-08-18T14:01:59.431Z,93457.66
2022-08-18T14:04:28.331Z,93465.53
2022-08-18T14:06:59.917Z,93464.72
2022-08-18T14:09:37.640Z,93458.47
2022-08-18T14:12:07.130Z,93467.44
2022-08-18T14:14:44.103Z,93466.66
2022-08-18T14:17:11.757Z,93463.94
2022-08-18T14:19:56.793Z,93469.38
2022-08-18T14:22:43.556Z,93472.91
2022-08-18T14:25:28.909Z,93469.38
2022-08-18T14:27:57.134Z,93472.91
2022-08-18T14:30:25.030Z,93480.31
2022-08-18T14:32:53.851Z,93482.22
2022-08-18T14:35:33.765Z,93474.84
2022-08-18T14:38:11.190Z,93474.03
2022-08-18T14:40:41.882Z,93480.31
2022-08-18T14:43:14.119Z,93481.09
2022-08-18T14:45:48.935Z,93473.22
2022-08-18T14:48:17.926Z,93480.31
2022-08-18T14:50:49.154Z,93479.97
2022-08-18T14:53:37.112Z,93480.31
2022-08-18T14:56:28.483Z,93478.38
2022-08-18T14:59:17.373Z,93473.72
2022-08-18T15:01:47.043Z,93466.03
2022-08-18T15:04:19.213Z,93465.13
2022-08-18T15:06:56.644Z,93458.13
2022-08-18T15:09:27.314Z,93466.69
2022-08-18T15:11:56.761Z,93463.22
2022-08-18T15:14:26.611Z,93460.84
2022-08-18T15:17:00.981Z,93458.47
2022-08-18T15:19:59.577Z,93457.25
2022-08-18T15:22:33.742Z,93460.31
2022-08-18T15:25:21.246Z,93461.81
2022-08-18T15:27:52.380Z,93457.81
2022-08-18T15:30:20.760Z,93466.69
2022-08-18T15:32:49.725Z,93463.00
2022-08-18T15:35:17.760Z,93476.06
2022-08-18T15:37:51.163Z,93466.91
2022-08-18T15:40:31.140Z,93470.63
2022-08-18T15:43:03.908Z,93465.03
2022-08-18T15:45:35.304Z,93466.66
2022-08-18T15:48:03.637Z,93462.59
2022-08-18T15:50:31.877Z,93462.31
2022-08-18T15:53:00.900Z,93457.16
2022-08-18T15:55:35.919Z,93454.72
2022-08-18T15:58:10.836Z,93449.72
2022-08-18T16:00:42.160Z,93444.09
2022-08-18T16:03:12.009Z,93449.34
2022-08-18T16:05:41.671Z,93448.53
2022-08-18T16:08:11.753Z,93461.41
2022-08-18T16:10:41.241Z,93462.03
2022-08-18T16:13:08.913Z,93457.50
2022-08-18T16:15:37.960Z,93458.94
2022-08-18T16:18:06.717Z,93461.47
2022-08-18T16:20:34.560Z,93462.94
2022-08-18T16:23:02.240Z,93457.28
2022-08-18T16:25:29.943Z,93461.44
2022-08-18T16:28:00.323Z,93469.97
2022-08-18T16:30:28.529Z,93473.00
2022-08-18T16:32:57.810Z,93492.41
2022-08-18T16:35:25.412Z,93493.53
2022-08-18T16:37:53.137Z,93497.38
2022-08-18T16:40:21.091Z,93503.94
2022-08-18T16:42:49.165Z,93506.97
2022-08-18T16:45:23.030Z,93513.06
2022-08-18T16:47:50.727Z,93510.34
2022-08-18T16:50:19.292Z,93516.91
2022-08-18T16:52:46.919Z,93513.69
2022-08-18T16:55:14.566Z,93525.44
2022-08-18T16:58:00.132Z,93525.44
2022-08-18T17:00:49.833Z,93527.22
2022-08-18T17:03:40.322Z,93517.59
2022-08-18T17:06:09.345Z,93516.97
2022-08-18T17:08:37.113Z,93531.78
2022-08-18T17:11:05.111Z,93537.44
2022-08-18T17:13:32.847Z,93538.75
2022-08-18T17:16:01.812Z,93546.50
2022-08-18T17:18:30.304Z,93529.69
2022-08-18T17:20:58.263Z,93527.31
2022-08-18T17:23:27.342Z,93520.72
2022-08-18T17:25:54.928Z,93520.91
2022-08-18T17:28:25.868Z,93526.88
2022-08-18T17:30:53.836Z,93535.56
2022-08-18T17:33:24.770Z,93536.06
2022-08-18T17:35:54.034Z,93529.97
2022-08-18T17:38:24.865Z,93536.41
2022-08-18T17:40:54.849Z,93527.25
2022-08-18T17:43:23.125Z,93541.69
2022-08-18T17:45:54.241Z,93544.50
2022-08-18T17:48:24.924Z,93543.19
2022-08-18T17:51:11.542Z,93538.34
2022-08-18T17:53:39.326Z,93547.53
2022-08-18T17:56:08.808Z,93535.00
2022-08-18T17:58:40.278Z,93530.94
2022-08-18T18:01:08.060Z,93527.44
2022-08-18T18:03:37.097Z,93533.50
2022-08-18T18:06:09.779Z,93543.50
2022-08-18T18:08:55.652Z,93542.69
2022-08-18T18:11:28.557Z,93553.63
2022-08-18T18:13:56.161Z,93557.97
2022-08-18T18:16:29.720Z,93564.22
2022-08-18T18:19:01.698Z,93553.00
2022-08-18T18:21:55.414Z,93564.72
2022-08-18T18:24:24.128Z,93579.00
2022-08-18T18:26:52.113Z,93581.25
2022-08-18T18:29:21.799Z,93578.53
2022-08-18T18:31:58.544Z,93572.75
2022-08-18T18:34:30.728Z,93578.72
2022-08-18T18:36:59.492Z,93577.59
2022-08-18T18:39:33.075Z,93575.66
2022-08-18T18:42:17.554Z,93566.34
2022-08-18T18:44:51.537Z,93568.75
2022-08-18T18:47:31.745Z,93574.41
2022-08-18T18:50:04.281Z,93574.09
2022-08-18T18:52:37.156Z,93573.28
2022-08-18T18:55:06.605Z,93566.69
2022-08-18T18:57:40.205Z,93574.59
2022-08-18T19:00:18.228Z,93576.69
2022-08-18T19:02:59.517Z,93572.84
2022-08-18T19:05:34.433Z,93577.81
2022-08-18T19:08:05.576Z,93594.03
2022-08-18T19:10:36.435Z,93609.94
2022-08-18T19:13:07.967Z,93628.88
2022-08-18T19:15:38.373Z,93636.88
2022-08-18T19:18:22.177Z,93644.41
2022-08-18T19:22:01.721Z,93670.53
2022-08-18T19:23:44.888Z,93673.72
2022-08-18T19:26:15.529Z,93665.13
2022-08-18T19:29:12.285Z,93671.22
2022-08-18T19:31:36.313Z,93665.84
2022-08-18T19:34:08.588Z,93664.56
2022-08-18T19:36:43.894Z,93666.28
2022-08-18T19:39:14.005Z,93665.28
2022-08-18T19:41:47.188Z,93666.22
2022-08-18T19:44:25.727Z,93656.41
2022-08-18T19:46:54.392Z,93647.72
2022-08-18T19:49:26.160Z,93658.44
2022-08-18T19:51:56.853Z,93669.69
2022-08-18T19:54:35.742Z,93669.16
2022-08-18T19:57:13.781Z,93664.81
2022-08-18T20:00:04.207Z,93661.31
2022-08-18T20:02:35.545Z,93660.81
2022-08-18T20:05:14.625Z,93659.19
2022-08-18T20:07:57.344Z,93657.06
2022-08-18T20:10:31.878Z,93660.13
2022-08-18T20:13:21.288Z,93659.63
2022-08-18T20:15:59.945Z,93657.97
2022-08-18T20:18:35.406Z,93654.44
2022-08-18T20:21:45.365Z,93645.44
2022-08-18T20:24:38.312Z,93654.44
2022-08-18T20:27:36.949Z,93656.69
2022-08-18T20:30:32.734Z,93657.81
2022-08-18T20:33:16.433Z,93659.22
2022-08-18T20:35:47.346Z,93652.94
2022-08-18T20:38:19.244Z,93670.41
2022-08-18T20:40:49.867Z,93666.41
2022-08-18T20:43:30.258Z,93670.25
2022-08-18T20:46:06.801Z,93656.91
2022-08-18T20:48:42.836Z,93651.44
2022-08-18T20:51:11.288Z,93635.38
2022-08-18T20:53:52.985Z,93639.22
2022-08-18T20:56:31.954Z,93648.84
2022-08-18T20:59:08.931Z,93666.00
2022-08-18T21:01:36.792Z,93660.03
2022-08-18T21:04:04.694Z,93673.69
2022-08-18T21:06:36.085Z,93666.63
2022-08-18T21:09:03.766Z,93671.25
2022-08-18T21:11:37.234Z,93669.63
2022-08-18T21:14:04.947Z,93678.94
2022-08-18T21:16:40.583Z,93682.00
2022-08-18T21:19:13.753Z,93702.22
2022-08-18T21:21:42.584Z,93701.69
2022-08-18T21:24:22.626Z,93683.69
2022-08-18T21:26:51.649Z,93676.63
2022-08-18T21:29:19.696Z,93677.75
2022-08-18T21:31:47.829Z,93673.91
2022-08-18T21:34:18.324Z,93664.38
2022-08-18T21:36:50.369Z,93676.09
2022-08-18T21:39:19.083Z,93669.84
2022-08-18T21:41:52.541Z,93658.94
2022-08-18T21:44:21.849Z,93669.03
2022-08-18T21:46:49.793Z,93683.78
2022-08-18T21:49:24.171Z,93679.44
2022-08-18T21:51:52.151Z,93684.06
2022-08-18T21:54:21.514Z,93691.47
2022-08-18T21:56:49.214Z,93688.72
2022-08-18T21:59:20.736Z,93690.34
2022-08-18T22:01:49.459Z,93691.47
2022-08-18T22:04:25.720Z,93700.75
2022-08-18T22:06:54.617Z,93707.34
2022-08-18T22:09:41.260Z,93699.94
2022-08-18T22:12:46.266Z,93696.41
2022-08-18T22:15:17.423Z,93678.44
2022-08-18T22:17:52.466Z,93692.88
2022-08-18T22:20:37.070Z,93699.44
2022-08-18T22:23:28.533Z,93691.53
2022-08-18T22:26:06.406Z,93702.47
2022-08-18T22:28:34.193Z,93687.19
2022-08-18T22:31:03.160Z,93686.09
2022-08-18T22:33:30.836Z,93676.28
2022-08-18T22:35:58.477Z,93677.13
2022-08-18T22:38:26.164Z,93670.84
2022-08-18T22:40:53.768Z,93662.16
2022-08-18T22:43:21.893Z,93655.28
2022-08-18T22:45:49.501Z,93649.84
2022-08-18T22:48:18.505Z,93649.84
2022-08-18T22:50:47.569Z,93634.88
2022-08-18T22:53:15.232Z,93630.53
2022-08-18T22:55:42.856Z,93626.69
2022-08-18T22:58:10.713Z,93623.19
2022-08-18T23:00:38.684Z,93616.13
2022-08-18T23:03:08.617Z,93608.22
2022-08-18T23:05:37.601Z,93611.25
2022-08-18T23:08:05.656Z,93594.88
2022-08-18T23:10:33.285Z,93607.41
2022-08-18T23:13:04.401Z,93592.97
2022-08-18T23:15:48.193Z,93581.25
2022-08-18T23:18:19.034Z,93573.06
2022-08-18T23:20:48.955Z,93571.16
2022-08-18T23:23:17.086Z,93567.94
2022-08-18T23:25:44.677Z,93577.41
2022-08-18T23:28:12.410Z,93582.06
2022-08-18T23:30:40.844Z,93587.19
2022-08-18T23:33:10.415Z,93582.56
2022-08-18T23:35:38.038Z,93585.28
2022-08-18T23:38:07.902Z,93595.38
2022-08-18T23:40:35.619Z,93620.25
2022-08-18T23:43:03.277Z,93635.00
2022-08-18T23:45:30.861Z,93636.91
2022-08-18T23:47:58.460Z,93647.81
2022-08-18T23:50:28.784Z,93655.19
2022-08-18T23:52:57.257Z,93662.28
2022-08-18T23:55:26.331Z,93678.94
2022-08-18T23:57:53.957Z,93685.50
